createdAt,value
2019-01-21T00:03:43.453Z,1022.4
2019-01-21T00:08:43.468Z,1022.4
2019-01-21T00:13:43.467Z,1022.4
2019-01-21T00:18:43.468Z,1022.4
2019-01-21T00:23:43.460Z,1022.5
2019-01-21T00:28:43.474Z,1022.5
2019-01-21T00:33:43.476Z,1022.5
2019-01-21T00:38:43.485Z,1022.5
2019-01-21T00:43:43.485Z,1022.5
2019-01-21T00:48:43.495Z,1022.6
2019-01-21T00:53:43.470Z,1022.6
2019-01-21T00:58:43.484Z,1022.8
2019-01-21T01:03:43.448Z,1022.8
2019-01-21T01:08:43.496Z,1022.9
2019-01-21T01:13:43.507Z,1023
2019-01-21T01:18:43.495Z,1023
2019-01-21T01:23:43.492Z,1022.9
2019-01-21T01:28:43.503Z,1022.9
2019-01-21T01:33:43.482Z,1022.9
2019-01-21T01:38:43.499Z,1023
2019-01-21T01:43:43.518Z,1022.9
2019-01-21T01:48:44.058Z,1022.9
2019-01-21T01:53:43.528Z,1022.9
2019-01-21T01:58:43.718Z,1022.9
2019-01-21T02:03:43.548Z,1022.8
2019-01-21T02:08:43.507Z,1022.8
2019-01-21T02:13:44.101Z,1022.8
2019-01-21T02:18:43.529Z,1022.8
2019-01-21T02:23:43.518Z,1022.7
2019-01-21T02:28:43.584Z,1022.8
2019-01-21T02:33:43.563Z,1022.7
2019-01-21T02:38:43.585Z,1022.8
2019-01-21T02:43:43.577Z,1022.8
2019-01-21T02:48:43.560Z,1022.7
2019-01-21T02:53:43.552Z,1022.7
2019-01-21T02:58:43.600Z,1022.7
2019-01-21T03:03:43.558Z,1022.7
2019-01-21T03:08:43.556Z,1022.7
2019-01-21T03:13:44.220Z,1022.6
2019-01-21T03:18:44.106Z,1022.6
2019-01-21T03:23:43.562Z,1022.6
2019-01-21T03:28:43.565Z,1022.5
2019-01-21T03:33:43.601Z,1022.5
2019-01-21T03:38:43.552Z,1022.5
2019-01-21T03:43:43.582Z,1022.5
2019-01-21T03:48:43.602Z,1022.5
2019-01-21T03:53:43.606Z,1022.5
2019-01-21T03:58:43.619Z,1022.5
2019-01-21T04:03:43.589Z,1022.6
2019-01-21T04:08:43.580Z,1022.6
2019-01-21T04:13:43.589Z,1022.6
2019-01-21T04:18:43.620Z,1022.7
2019-01-21T04:23:43.568Z,1022.7
2019-01-21T04:28:43.596Z,1022.7
2019-01-21T04:33:43.612Z,1022.7
2019-01-21T04:38:44.305Z,1022.6
2019-01-21T04:43:43.628Z,1022.7
2019-01-21T04:48:43.610Z,1022.7
2019-01-21T04:53:43.616Z,1022.7
2019-01-21T04:58:43.616Z,1022.8
2019-01-21T05:03:44.169Z,1022.8
2019-01-21T05:08:43.647Z,1022.8
2019-01-21T05:13:43.631Z,1022.9
2019-01-21T05:18:43.639Z,1022.8
2019-01-21T05:23:43.663Z,1022.8
2019-01-21T05:28:44.038Z,1022.8
2019-01-21T05:33:43.671Z,1022.7
2019-01-21T05:38:43.669Z,1022.8
2019-01-21T05:43:43.679Z,1022.9
2019-01-21T05:48:49.603Z,1022.9
2019-01-21T05:53:43.653Z,1023
2019-01-21T05:58:43.663Z,1023
2019-01-21T06:03:43.638Z,1023
2019-01-21T06:08:43.653Z,1023.1
2019-01-21T06:13:43.682Z,1023.1
2019-01-21T06:18:43.673Z,1023.2
2019-01-21T06:23:43.648Z,1023.1
2019-01-21T06:28:43.706Z,1023.3
2019-01-21T06:33:43.635Z,1023.2
2019-01-21T06:38:43.650Z,1023.3
2019-01-21T06:43:43.673Z,1023.4
2019-01-21T06:48:43.659Z,1023.5
2019-01-21T06:53:43.678Z,1023.6
2019-01-21T06:58:43.676Z,1023.6
2019-01-21T07:03:43.677Z,1023.7
2019-01-21T07:08:43.698Z,1023.7
2019-01-21T07:13:43.682Z,1023.7
2019-01-21T07:18:43.682Z,1023.7
2019-01-21T07:23:43.718Z,1023.7
2019-01-21T07:28:43.699Z,1023.8
2019-01-21T07:33:43.734Z,1023.7
2019-01-21T07:38:43.690Z,1023.6
2019-01-21T07:43:43.707Z,1023.7
2019-01-21T07:48:43.821Z,1023.6
2019-01-21T07:53:43.709Z,1023.6
2019-01-21T07:58:43.693Z,1023.6
2019-01-21T08:03:43.740Z,1023.7
2019-01-21T08:08:43.709Z,1023.6
2019-01-21T08:13:43.702Z,1023.5
2019-01-21T08:18:43.727Z,1023.6
2019-01-21T08:23:43.719Z,1023.6
2019-01-21T08:28:43.752Z,1023.7
2019-01-21T08:33:43.739Z,1023.7
2019-01-21T08:38:43.721Z,1023.6
2019-01-21T08:43:43.760Z,1023.7
2019-01-21T08:48:43.721Z,1023.6
2019-01-21T08:53:43.737Z,1023.6
2019-01-21T08:58:43.740Z,1023.7
2019-01-21T09:03:43.738Z,1023.5
2019-01-21T09:08:43.762Z,1023.5
2019-01-21T09:13:43.745Z,1023.5
2019-01-21T09:18:43.784Z,1023.6
2019-01-21T09:23:43.755Z,1023.5
2019-01-21T09:28:43.769Z,1023.5
2019-01-21T09:33:43.751Z,1023.4
2019-01-21T09:38:43.797Z,1023.5
2019-01-21T09:43:43.784Z,1023.3
2019-01-21T09:48:43.768Z,1023.3
2019-01-21T09:53:43.778Z,1023.2
2019-01-21T09:58:43.772Z,1023.2
2019-01-21T10:03:43.770Z,1023.2
2019-01-21T10:08:43.772Z,1023.2
2019-01-21T10:13:43.770Z,1023.1
2019-01-21T10:18:43.805Z,1022.9
2019-01-21T10:23:43.818Z,1022.8
2019-01-21T10:28:43.777Z,1022.7
2019-01-21T10:33:43.752Z,1022.7
2019-01-21T10:38:43.842Z,1022.6
2019-01-21T10:43:43.826Z,1022.4
2019-01-21T10:48:43.889Z,1022.4
2019-01-21T10:53:43.810Z,1022.3
2019-01-21T10:58:43.800Z,1022.3
2019-01-21T11:03:43.790Z,1022.2
2019-01-21T11:08:43.813Z,1022.2
2019-01-21T11:13:44.772Z,1022.1
2019-01-21T11:18:43.826Z,1022
2019-01-21T11:23:43.814Z,1022
2019-01-21T11:28:43.815Z,1021.9
2019-01-21T11:33:43.812Z,1021.9
2019-01-21T11:38:43.842Z,1021.7
2019-01-21T11:43:43.787Z,1021.8
2019-01-21T11:48:43.864Z,1021.7
2019-01-21T11:53:43.847Z,1021.6
2019-01-21T11:58:43.806Z,1021.7
2019-01-21T12:03:43.865Z,1021.7
2019-01-21T12:08:43.857Z,1021.6
2019-01-21T12:13:43.991Z,1021.6
2019-01-21T12:18:43.792Z,1021.5
2019-01-21T12:23:43.846Z,1021.4
2019-01-21T12:28:43.850Z,1021.3
2019-01-21T12:33:43.835Z,1021.3
2019-01-21T12:38:43.875Z,1021.3
2019-01-21T12:43:43.836Z,1021.2
2019-01-21T12:48:43.882Z,1021.2
2019-01-21T12:53:43.873Z,1021.2
2019-01-21T12:58:43.871Z,1021.1
2019-01-21T13:03:43.870Z,1021.3
2019-01-21T13:08:43.898Z,1021.2
2019-01-21T13:13:43.881Z,1021.2
2019-01-21T13:18:43.835Z,1021.1
2019-01-21T13:23:43.902Z,1021.1
2019-01-21T13:28:43.909Z,1021.1
2019-01-21T13:33:43.896Z,1021
2019-01-21T13:38:43.869Z,1021.1
2019-01-21T13:43:43.872Z,1021
2019-01-21T13:48:43.902Z,1021
2019-01-21T13:53:43.882Z,1020.9
2019-01-21T13:58:43.881Z,1020.9
2019-01-21T14:03:43.903Z,1020.8
2019-01-21T14:08:43.922Z,1020.8
2019-01-21T14:13:43.915Z,1020.9
2019-01-21T14:18:43.879Z,1020.8
2019-01-21T14:23:43.917Z,1020.9
2019-01-21T14:28:43.902Z,1020.8
2019-01-21T14:33:43.923Z,1020.8
2019-01-21T14:38:43.935Z,1020.8
2019-01-21T14:43:43.919Z,1020.8
2019-01-21T14:48:43.962Z,1020.9
2019-01-21T14:53:43.981Z,1020.9
2019-01-21T14:58:43.959Z,1020.9
2019-01-21T15:03:44.073Z,1020.9
2019-01-21T15:08:44.012Z,1020.9
2019-01-21T15:13:43.978Z,1020.9
2019-01-21T15:18:44.010Z,1020.9
2019-01-21T15:23:44.028Z,1020.9
2019-01-21T15:28:44.177Z,1020.9
2019-01-21T15:33:44.022Z,1021.1
2019-01-21T15:38:44.254Z,1021.1
2019-01-21T15:43:44.759Z,1021
2019-01-21T15:48:43.947Z,1021.1
2019-01-21T15:53:44.035Z,1021.1
2019-01-21T15:58:43.951Z,1021.2
2019-01-21T16:03:43.953Z,1021.2
2019-01-21T16:08:43.960Z,1021.2
2019-01-21T16:13:43.994Z,1021.2
2019-01-21T16:18:44.009Z,1021.2
2019-01-21T16:23:43.977Z,1021.2
2019-01-21T16:28:43.987Z,1021.3
2019-01-21T16:33:44.770Z,1021.3
2019-01-21T16:38:50.060Z,1021.4
2019-01-21T16:43:44.010Z,1021.4
2019-01-21T16:48:44.008Z,1021.3
2019-01-21T16:53:43.990Z,1021.4
2019-01-21T16:58:44.022Z,1021.4
2019-01-21T17:03:46.659Z,1021.4
2019-01-21T17:08:43.990Z,1021.4
2019-01-21T17:13:45.397Z,1021.5
2019-01-21T17:18:44.033Z,1021.5
2019-01-21T17:23:44.041Z,1021.5
2019-01-21T17:28:43.980Z,1021.5
2019-01-21T17:33:44.015Z,1021.6
2019-01-21T17:38:44.037Z,1021.5
2019-01-21T17:43:44.045Z,1021.5
2019-01-21T17:48:44.034Z,1021.5
2019-01-21T17:53:44.043Z,1021.4
2019-01-21T17:58:44.058Z,1021.5
2019-01-21T18:03:44.069Z,1021.6
2019-01-21T18:08:44.267Z,1021.5
2019-01-21T18:13:44.138Z,1021.6
2019-01-21T18:18:44.044Z,1021.6
2019-01-21T18:23:44.047Z,1021.6
2019-01-21T18:28:44.929Z,1021.6
2019-01-21T18:33:44.073Z,1021.6
2019-01-21T18:38:44.153Z,1021.6
2019-01-21T18:43:44.071Z,1021.6
2019-01-21T18:48:44.317Z,1021.7
2019-01-21T18:53:44.121Z,1021.7
2019-01-21T18:58:44.144Z,1021.8
2019-01-21T19:03:44.204Z,1021.8
2019-01-21T19:08:44.070Z,1021.8
2019-01-21T19:13:44.103Z,1021.8
2019-01-21T19:18:44.183Z,1021.7
2019-01-21T19:23:44.322Z,1021.7
2019-01-21T19:28:44.087Z,1021.7
2019-01-21T19:33:44.253Z,1021.7
2019-01-21T19:38:44.075Z,1021.7
2019-01-21T19:43:44.106Z,1021.7
2019-01-21T19:48:45.193Z,1021.7
2019-01-21T19:53:44.097Z,1021.7
2019-01-21T19:58:44.226Z,1021.6
2019-01-21T20:03:44.108Z,1021.7
2019-01-21T20:08:44.112Z,1021.5
2019-01-21T20:13:44.132Z,1021.6
2019-01-21T20:18:44.120Z,1021.7
2019-01-21T20:23:44.108Z,1021.6
2019-01-21T20:28:44.567Z,1021.7
2019-01-21T20:33:44.086Z,1021.7
2019-01-21T20:38:44.165Z,1021.8
2019-01-21T20:43:44.183Z,1021.7
2019-01-21T20:48:44.125Z,1021.7
2019-01-21T20:53:44.125Z,1021.6
2019-01-21T20:58:44.152Z,1021.7
2019-01-21T21:03:44.189Z,1021.7
2019-01-21T21:08:44.159Z,1021.8
2019-01-21T21:13:44.139Z,1021.8
2019-01-21T21:18:45.484Z,1021.8
2019-01-21T21:23:44.173Z,1021.9
2019-01-21T21:28:44.160Z,1021.9
2019-01-21T21:33:44.276Z,1021.8
2019-01-21T21:38:44.134Z,1021.8
2019-01-21T21:43:44.184Z,1021.9
2019-01-21T21:48:44.170Z,1021.9
2019-01-21T21:53:44.216Z,1022
2019-01-21T21:58:44.166Z,1021.9
2019-01-21T22:03:44.184Z,1021.9
2019-01-21T22:08:44.395Z,1021.8
2019-01-21T22:13:45.058Z,1021.9
2019-01-21T22:18:44.280Z,1021.9
2019-01-21T22:23:44.194Z,1021.9
2019-01-21T22:28:44.178Z,1021.9
2019-01-21T22:33:44.189Z,1021.9
2019-01-21T22:38:44.714Z,1021.8
2019-01-21T22:43:44.201Z,1021.8
2019-01-21T22:48:44.206Z,1021.8
2019-01-21T22:53:44.810Z,1021.8
2019-01-21T22:58:44.146Z,1021.8
2019-01-21T23:03:44.222Z,1022
2019-01-21T23:08:44.419Z,1022
2019-01-21T23:13:44.294Z,1021.9
2019-01-21T23:18:44.214Z,1022
2019-01-21T23:23:44.221Z,1021.9
2019-01-21T23:28:44.220Z,1021.8
2019-01-21T23:33:44.232Z,1021.8
2019-01-21T23:38:44.295Z,1021.8
2019-01-21T23:43:44.213Z,1021.7
2019-01-21T23:48:44.213Z,1021.7
2019-01-21T23:53:44.239Z,1021.6
2019-01-21T23:58:44.229Z,1021.6
